createdAt,value
2023-03-22T00:00:19.789Z,89.64
2023-03-22T00:01:19.690Z,89.54
2023-03-22T00:02:19.695Z,89.29
2023-03-22T00:03:19.680Z,88.43
2023-03-22T00:04:19.653Z,87.92
2023-03-22T00:05:19.626Z,87.37
2023-03-22T00:06:19.626Z,87.26
2023-03-22T00:07:19.604Z,87.26
2023-03-22T00:08:19.602Z,87.26
2023-03-22T00:09:19.576Z,87.61
2023-03-22T00:10:19.577Z,87.82
2023-03-22T00:11:19.576Z,87.82
2023-03-22T00:12:19.582Z,87.82
2023-03-22T00:13:19.544Z,87.92
2023-03-22T00:14:19.536Z,88.02
2023-03-22T00:15:19.528Z,87.77
2023-03-22T00:16:19.582Z,87.92
2023-03-22T00:17:19.506Z,87.88
2023-03-22T00:18:19.491Z,87.67
2023-03-22T00:19:19.473Z,87.88
2023-03-22T00:20:20.784Z,87.88
2023-03-22T00:21:19.456Z,87.92
2023-03-22T00:22:19.449Z,88.12
2023-03-22T00:23:19.430Z,88.33
2023-03-22T00:24:19.416Z,88.33
2023-03-22T00:25:19.440Z,88.43
2023-03-22T00:26:19.404Z,88.43
2023-03-22T00:27:19.376Z,88.29
2023-03-22T00:28:19.397Z,87.98
2023-03-22T00:29:19.370Z,87.77
2023-03-22T00:30:19.376Z,87.67
2023-03-22T00:31:19.352Z,87.57
2023-03-22T00:32:19.344Z,87.57
2023-03-22T00:33:19.432Z,87.47
2023-03-22T00:34:19.323Z,87.47
2023-03-22T00:35:19.331Z,87.26
2023-03-22T00:36:19.308Z,87.43
2023-03-22T00:37:19.279Z,87.26
2023-03-22T00:38:20.634Z,87.12
2023-03-22T00:39:19.253Z,86.71
2023-03-22T00:40:19.265Z,86.51
2023-03-22T00:41:19.256Z,86.81
2023-03-22T00:42:19.236Z,86.81
2023-03-22T00:43:19.219Z,86.71
2023-03-22T00:44:19.202Z,86.71
2023-03-22T00:45:19.193Z,86.81
2023-03-22T00:46:19.230Z,86.91
2023-03-22T00:47:19.173Z,87.26
2023-03-22T00:48:19.166Z,87.57
2023-03-22T00:49:19.158Z,87.77
2023-03-22T00:50:19.135Z,87.88
2023-03-22T00:51:19.144Z,87.77
2023-03-22T00:52:19.116Z,87.98
2023-03-22T00:53:19.132Z,88.23
2023-03-22T00:54:19.105Z,88.43
2023-03-22T00:55:19.106Z,88.53
2023-03-22T00:56:19.102Z,88.74
2023-03-22T00:57:19.083Z,88.84
2023-03-22T00:58:19.056Z,88.94
2023-03-22T00:59:19.050Z,89.15
2023-03-22T01:00:19.059Z,89.04
2023-03-22T01:01:19.105Z,89.45
2023-03-22T01:02:19.005Z,89.50
2023-03-22T01:03:19.034Z,89.70
2023-03-22T01:04:18.975Z,89.60
2023-03-22T01:05:18.978Z,89.60
2023-03-22T01:06:18.976Z,89.60
2023-03-22T01:07:18.954Z,89.50
2023-03-22T01:08:19.006Z,89.39
2023-03-22T01:09:18.924Z,89.50
2023-03-22T01:10:18.929Z,89.50
2023-03-22T01:11:18.925Z,89.36
2023-03-22T01:12:18.895Z,89.36
2023-03-22T01:13:18.902Z,89.29
2023-03-22T01:14:18.879Z,89.29
2023-03-22T01:15:18.866Z,89.19
2023-03-22T01:16:18.905Z,89.39
2023-03-22T01:17:18.847Z,89.19
2023-03-22T01:18:18.825Z,89.19
2023-03-22T01:19:18.820Z,89.29
2023-03-22T01:20:18.819Z,89.29
2023-03-22T01:21:18.810Z,89.39
2023-03-22T01:22:18.802Z,89.50
2023-03-22T01:23:18.774Z,89.50
2023-03-22T01:24:18.756Z,89.50
2023-03-22T01:25:18.755Z,89.50
2023-03-22T01:26:18.787Z,89.84
2023-03-22T01:27:18.734Z,90.16
2023-03-22T01:28:18.715Z,90.05
2023-03-22T01:29:18.706Z,90.56
2023-03-22T01:30:18.695Z,90.36
2023-03-22T01:31:18.735Z,90.26
2023-03-22T01:32:18.677Z,90.26
2023-03-22T01:33:18.666Z,90.46
2023-03-22T01:34:18.684Z,90.36
2023-03-22T01:35:18.662Z,90.36
2023-03-22T01:36:18.654Z,90.26
2023-03-22T01:37:18.627Z,90.16
2023-03-22T01:38:18.637Z,90.36
2023-03-22T01:39:18.610Z,90.36
2023-03-22T01:40:18.603Z,90.11
2023-03-22T01:41:18.602Z,90.11
2023-03-22T01:42:18.580Z,89.90
2023-03-22T01:43:18.572Z,89.76
2023-03-22T01:44:18.559Z,89.66
2023-03-22T01:45:18.541Z,89.45
2023-03-22T01:46:18.595Z,89.56
2023-03-22T01:47:18.633Z,89.56
2023-03-22T01:48:18.542Z,89.15
2023-03-22T01:49:18.529Z,88.70
2023-03-22T01:50:18.483Z,88.29
2023-03-22T01:51:18.488Z,88.08
2023-03-22T01:52:18.569Z,87.53
2023-03-22T01:53:18.454Z,87.12
2023-03-22T01:54:18.450Z,87.22
2023-03-22T01:55:18.628Z,87.26
2023-03-22T01:56:18.553Z,87.16
2023-03-22T01:57:18.527Z,87.47
2023-03-22T01:58:18.419Z,87.67
2023-03-22T01:59:18.410Z,87.57
2023-03-22T02:00:18.374Z,87.73
2023-03-22T02:01:18.471Z,87.32
2023-03-22T02:02:18.394Z,87.02
2023-03-22T02:03:18.354Z,86.91
2023-03-22T02:04:18.366Z,87.02
2023-03-22T02:05:18.409Z,87.12
2023-03-22T02:06:18.343Z,87.32
2023-03-22T02:07:18.321Z,86.91
2023-03-22T02:08:18.359Z,86.81
2023-03-22T02:09:18.325Z,86.91
2023-03-22T02:10:18.312Z,86.36
2023-03-22T02:11:18.397Z,86.36
2023-03-22T02:12:18.317Z,86.26
2023-03-22T02:13:18.426Z,86.36
2023-03-22T02:14:18.234Z,86.36
2023-03-22T02:15:18.210Z,86.16
2023-03-22T02:16:18.324Z,86.26
2023-03-22T02:17:18.363Z,86.16
2023-03-22T02:18:18.198Z,86.26
2023-03-22T02:19:18.209Z,86.16
2023-03-22T02:20:18.170Z,85.91
2023-03-22T02:21:18.157Z,85.85
2023-03-22T02:22:18.199Z,85.85
2023-03-22T02:23:18.125Z,86.26
2023-03-22T02:24:18.123Z,86.05
2023-03-22T02:25:18.469Z,86.05
2023-03-22T02:26:18.117Z,86.36
2023-03-22T02:27:18.110Z,86.46
2023-03-22T02:28:18.081Z,86.46
2023-03-22T02:29:18.062Z,86.46
2023-03-22T02:30:18.066Z,86.71
2023-03-22T02:31:18.316Z,86.81
2023-03-22T02:32:18.039Z,86.91
2023-03-22T02:33:18.033Z,87.02
2023-03-22T02:34:18.033Z,87.02
2023-03-22T02:35:18.027Z,87.02
2023-03-22T02:36:18.159Z,87.02
2023-03-22T02:37:17.984Z,87.12
2023-03-22T02:38:17.992Z,87.02
2023-03-22T02:39:17.962Z,87.12
2023-03-22T02:40:17.995Z,87.32
2023-03-22T02:41:18.384Z,87.12
2023-03-22T02:42:17.922Z,87.02
2023-03-22T02:43:17.923Z,87.22
2023-03-22T02:44:17.938Z,87.43
2023-03-22T02:45:18.019Z,87.32
2023-03-22T02:46:18.087Z,87.43
2023-03-22T02:47:18.000Z,87.47
2023-03-22T02:48:17.972Z,87.53
2023-03-22T02:49:17.872Z,87.43
2023-03-22T02:50:17.853Z,87.43
2023-03-22T02:51:17.823Z,87.43
2023-03-22T02:52:17.816Z,87.32
2023-03-22T02:53:17.795Z,87.43
2023-03-22T02:54:17.792Z,87.53
2023-03-22T02:55:17.785Z,87.57
2023-03-22T02:56:17.792Z,87.57
2023-03-22T02:57:17.818Z,87.67
2023-03-22T02:58:17.767Z,87.77
2023-03-22T02:59:17.805Z,88.08
2023-03-22T03:00:17.725Z,87.98
2023-03-22T03:01:17.768Z,88.08
2023-03-22T03:02:17.718Z,88.18
2023-03-22T03:03:17.685Z,88.08
2023-03-22T03:04:17.680Z,87.98
2023-03-22T03:05:17.669Z,88.39
2023-03-22T03:06:17.665Z,88.18
2023-03-22T03:07:17.659Z,88.29
2023-03-22T03:08:17.635Z,88.43
2023-03-22T03:09:17.626Z,88.49
2023-03-22T03:10:17.644Z,88.18
2023-03-22T03:11:17.678Z,88.08
2023-03-22T03:12:17.588Z,87.98
2023-03-22T03:13:17.596Z,88.08
2023-03-22T03:14:17.579Z,88.18
2023-03-22T03:15:17.569Z,88.29
2023-03-22T03:16:17.693Z,88.43
2023-03-22T03:17:17.547Z,88.18
2023-03-22T03:18:17.528Z,87.88
2023-03-22T03:19:17.546Z,87.88
2023-03-22T03:20:17.557Z,87.67
2023-03-22T03:21:17.507Z,87.77
2023-03-22T03:22:17.551Z,87.77
2023-03-22T03:23:17.518Z,87.57
2023-03-22T03:24:17.463Z,87.37
2023-03-22T03:25:17.457Z,87.47
2023-03-22T03:26:17.458Z,87.67
2023-03-22T03:27:17.430Z,87.57
2023-03-22T03:28:17.429Z,87.77
2023-03-22T03:29:17.411Z,87.98
2023-03-22T03:30:17.407Z,88.08
2023-03-22T03:31:17.458Z,88.08
2023-03-22T03:32:17.431Z,87.98
2023-03-22T03:33:17.369Z,88.23
2023-03-22T03:34:17.360Z,88.33
2023-03-22T03:35:17.386Z,88.43
2023-03-22T03:36:17.370Z,88.53
2023-03-22T03:37:17.338Z,88.64
2023-03-22T03:38:17.311Z,88.74
2023-03-22T03:39:17.300Z,88.84
2023-03-22T03:40:17.322Z,88.84
2023-03-22T03:41:17.299Z,89.04
2023-03-22T03:42:17.372Z,89.04
2023-03-22T03:43:17.263Z,89.09
2023-03-22T03:44:17.318Z,89.19
2023-03-22T03:45:17.241Z,89.09
2023-03-22T03:46:17.314Z,89.19
2023-03-22T03:47:17.222Z,89.29
2023-03-22T03:48:17.292Z,89.29
2023-03-22T03:49:17.204Z,89.39
2023-03-22T03:50:17.225Z,89.39
2023-03-22T03:51:17.202Z,89.64
2023-03-22T03:52:17.156Z,89.84
2023-03-22T03:53:17.161Z,90.05
2023-03-22T03:54:17.195Z,90.26
2023-03-22T03:55:17.185Z,90.56
2023-03-22T03:56:17.146Z,90.71
2023-03-22T03:57:17.152Z,90.81
2023-03-22T03:58:17.118Z,90.81
2023-03-22T03:59:17.095Z,91.02
2023-03-22T04:00:17.127Z,91.22
2023-03-22T04:01:17.089Z,91.22
2023-03-22T04:02:17.082Z,91.33
2023-03-22T04:03:17.079Z,91.47
2023-03-22T04:04:17.092Z,91.47
2023-03-22T04:05:17.028Z,91.67
2023-03-22T04:06:17.038Z,91.78
2023-03-22T04:07:17.009Z,91.88
2023-03-22T04:08:17.040Z,91.88
2023-03-22T04:09:17.015Z,92.08
2023-03-22T04:10:16.978Z,92.13
2023-03-22T04:11:16.982Z,92.23
2023-03-22T04:12:16.952Z,92.23
2023-03-22T04:13:17.081Z,92.23
2023-03-22T04:14:16.982Z,92.54
2023-03-22T04:15:16.971Z,92.54
2023-03-22T04:16:17.021Z,92.74
2023-03-22T04:17:16.907Z,92.74
2023-03-22T04:18:16.908Z,92.74
2023-03-22T04:19:16.883Z,92.85
2023-03-22T04:20:16.922Z,92.95
2023-03-22T04:21:16.904Z,92.95
2023-03-22T04:22:16.871Z,92.64
2023-03-22T04:23:16.839Z,92.95
2023-03-22T04:24:16.870Z,92.85
2023-03-22T04:25:16.863Z,92.95
2023-03-22T04:26:17.061Z,92.95
2023-03-22T04:27:16.822Z,92.85
2023-03-22T04:28:16.784Z,92.85
2023-03-22T04:29:16.775Z,92.74
2023-03-22T04:30:16.754Z,92.95
2023-03-22T04:31:16.790Z,92.95
2023-03-22T04:32:16.820Z,92.85
2023-03-22T04:33:16.728Z,92.95
2023-03-22T04:34:16.725Z,92.85
2023-03-22T04:35:16.756Z,92.85
2023-03-22T04:36:16.806Z,92.95
2023-03-22T04:37:16.712Z,93.05
2023-03-22T04:38:16.662Z,93.16
2023-03-22T04:39:16.687Z,93.26
2023-03-22T04:40:16.692Z,93.26
2023-03-22T04:41:16.652Z,93.20
2023-03-22T04:42:16.633Z,93.30
2023-03-22T04:43:16.621Z,93.82
2023-03-22T04:44:16.605Z,93.67
2023-03-22T04:45:16.599Z,93.57
2023-03-22T04:46:16.637Z,93.57
2023-03-22T04:47:16.592Z,93.77
2023-03-22T04:48:16.666Z,93.87
2023-03-22T04:49:16.561Z,93.77
2023-03-22T04:50:16.543Z,93.98
2023-03-22T04:51:16.540Z,93.87
2023-03-22T04:52:16.606Z,93.67
2023-03-22T04:53:16.518Z,93.87
2023-03-22T04:54:16.507Z,93.77
2023-03-22T04:55:16.485Z,93.87
2023-03-22T04:56:16.549Z,93.77
2023-03-22T04:57:16.535Z,93.42
2023-03-22T04:58:16.509Z,93.32
2023-03-22T04:59:16.454Z,93.42
2023-03-22T05:00:16.443Z,93.21
2023-03-22T05:01:16.518Z,93.01
2023-03-22T05:02:16.445Z,93.01
2023-03-22T05:03:16.395Z,93.01
2023-03-22T05:04:16.383Z,93.12
2023-03-22T05:05:16.394Z,92.76
2023-03-22T05:06:16.393Z,92.25
2023-03-22T05:07:16.375Z,92.04
2023-03-22T05:08:16.360Z,92.04
2023-03-22T05:09:16.328Z,92.00
2023-03-22T05:10:16.339Z,92.00
2023-03-22T05:11:16.329Z,92.00
2023-03-22T05:12:16.437Z,91.80
2023-03-22T05:13:16.288Z,91.69
2023-03-22T05:14:16.342Z,91.59
2023-03-22T05:15:16.284Z,91.28
2023-03-22T05:16:16.305Z,91.35
2023-03-22T05:17:16.256Z,91.03
2023-03-22T05:18:16.239Z,91.14
2023-03-22T05:19:16.238Z,91.03
2023-03-22T05:20:16.231Z,90.93
2023-03-22T05:21:16.220Z,90.62
2023-03-22T05:22:16.236Z,90.62
2023-03-22T05:23:16.208Z,90.62
2023-03-22T05:24:16.177Z,90.62
2023-03-22T05:25:16.167Z,90.62
2023-03-22T05:26:16.249Z,90.73
2023-03-22T05:27:16.189Z,90.52
2023-03-22T05:28:16.366Z,90.42
2023-03-22T05:29:16.154Z,90.52
2023-03-22T05:30:16.192Z,90.52
2023-03-22T05:31:16.150Z,90.42
2023-03-22T05:32:16.130Z,90.42
2023-03-22T05:33:16.077Z,90.22
2023-03-22T05:34:16.066Z,90.22
2023-03-22T05:35:16.050Z,90.22
2023-03-22T05:36:16.059Z,90.22
2023-03-22T05:37:16.059Z,90.42
2023-03-22T05:38:16.021Z,90.52
2023-03-22T05:39:16.012Z,90.62
2023-03-22T05:40:16.009Z,90.73
2023-03-22T05:41:16.004Z,90.73
2023-03-22T05:42:16.194Z,90.77
2023-03-22T05:43:15.987Z,90.77
2023-03-22T05:44:15.971Z,90.77
2023-03-22T05:45:15.955Z,90.87
2023-03-22T05:46:16.007Z,91.08
2023-03-22T05:47:15.944Z,90.93
2023-03-22T05:48:15.970Z,90.93
2023-03-22T05:49:15.907Z,90.73
2023-03-22T05:50:16.090Z,90.52
2023-03-22T05:51:15.878Z,90.32
2023-03-22T05:52:16.297Z,90.07
2023-03-22T05:53:15.856Z,89.76
2023-03-22T05:54:15.849Z,89.66
2023-03-22T05:55:15.843Z,89.76
2023-03-22T05:56:15.877Z,89.66
2023-03-22T05:57:15.828Z,89.66
2023-03-22T05:58:15.991Z,89.66
2023-03-22T05:59:15.841Z,89.56
2023-03-22T06:00:15.929Z,89.56
2023-03-22T06:01:15.782Z,89.66
2023-03-22T06:02:15.874Z,89.66
2023-03-22T06:03:16.946Z,89.66
2023-03-22T06:04:15.753Z,89.56
2023-03-22T06:05:15.742Z,89.56
2023-03-22T06:06:15.782Z,89.45
2023-03-22T06:07:15.769Z,89.56
2023-03-22T06:08:15.873Z,89.56
2023-03-22T06:09:17.680Z,89.56
2023-03-22T06:10:15.737Z,89.56
2023-03-22T06:11:15.712Z,89.56
2023-03-22T06:12:15.727Z,89.56
2023-03-22T06:13:15.699Z,89.76
2023-03-22T06:14:15.704Z,89.56
2023-03-22T06:15:15.633Z,89.56
2023-03-22T06:16:15.763Z,89.56
2023-03-22T06:17:15.675Z,89.51
2023-03-22T06:18:15.612Z,89.31
2023-03-22T06:19:15.606Z,89.21
2023-03-22T06:20:15.654Z,89.21
2023-03-22T06:21:15.585Z,89.11
2023-03-22T06:22:15.661Z,88.90
2023-03-22T06:23:15.751Z,88.80
2023-03-22T06:24:15.609Z,88.65
2023-03-22T06:25:15.541Z,88.45
2023-03-22T06:26:15.547Z,88.35
2023-03-22T06:27:15.529Z,88.24
2023-03-22T06:28:15.516Z,88.24
2023-03-22T06:29:15.538Z,88.24
2023-03-22T06:30:15.575Z,88.04
2023-03-22T06:31:15.532Z,88.14
2023-03-22T06:32:15.587Z,87.94
2023-03-22T06:33:15.469Z,87.94
2023-03-22T06:34:15.414Z,87.94
2023-03-22T06:35:15.425Z,87.90
2023-03-22T06:36:15.402Z,87.70
2023-03-22T06:37:15.408Z,87.70
2023-03-22T06:38:15.390Z,87.70
2023-03-22T06:39:15.373Z,87.59
2023-03-22T06:40:15.379Z,87.49
2023-03-22T06:41:15.349Z,87.49
2023-03-22T06:42:15.340Z,87.29
2023-03-22T06:43:15.321Z,87.18
2023-03-22T06:44:15.353Z,87.29
2023-03-22T06:45:15.301Z,87.29
2023-03-22T06:46:15.338Z,87.29
2023-03-22T06:47:15.422Z,87.29
2023-03-22T06:48:15.443Z,87.04
2023-03-22T06:49:15.274Z,86.83
2023-03-22T06:50:15.253Z,86.94
2023-03-22T06:51:15.232Z,87.04
2023-03-22T06:52:15.241Z,86.94
2023-03-22T06:53:15.267Z,86.94
2023-03-22T06:54:15.224Z,86.94
2023-03-22T06:55:15.221Z,87.04
2023-03-22T06:56:15.218Z,87.14
2023-03-22T06:57:15.183Z,87.14
2023-03-22T06:58:15.199Z,87.24
2023-03-22T06:59:15.153Z,87.24
2023-03-22T07:00:15.164Z,87.04
2023-03-22T07:01:15.712Z,87.04
2023-03-22T07:02:15.123Z,87.35
2023-03-22T07:03:15.101Z,87.55
2023-03-22T07:04:15.097Z,87.76
2023-03-22T07:05:15.104Z,87.65
2023-03-22T07:06:15.074Z,87.65
2023-03-22T07:07:15.078Z,87.76
2023-03-22T07:08:15.046Z,87.76
2023-03-22T07:09:15.036Z,87.85
2023-03-22T07:10:15.084Z,87.96
2023-03-22T07:11:15.019Z,87.85
2023-03-22T07:12:15.028Z,87.41
2023-03-22T07:13:14.998Z,87.41
2023-03-22T07:14:15.047Z,87.41
2023-03-22T07:15:14.977Z,87.10
2023-03-22T07:16:15.121Z,86.59
2023-03-22T07:17:14.956Z,86.44
2023-03-22T07:18:15.237Z,86.24
2023-03-22T07:19:14.936Z,85.32
2023-03-22T07:20:14.918Z,85.59
2023-03-22T07:21:14.913Z,84.36
2023-03-22T07:22:14.898Z,83.51
2023-03-22T07:23:14.906Z,83.30
2023-03-22T07:24:14.917Z,83.40
2023-03-22T07:25:14.868Z,82.69
2023-03-22T07:26:14.978Z,82.14
2023-03-22T07:27:14.840Z,81.43
2023-03-22T07:28:14.970Z,81.12
2023-03-22T07:29:14.820Z,80.88
2023-03-22T07:30:14.805Z,81.39
2023-03-22T07:31:14.805Z,80.37
2023-03-22T07:32:14.852Z,79.82
2023-03-22T07:33:14.801Z,79.41
2023-03-22T07:34:14.794Z,79.11
2023-03-22T07:35:14.751Z,78.70
2023-03-22T07:36:14.820Z,77.78
2023-03-22T07:37:14.758Z,78.26
2023-03-22T07:38:15.438Z,77.95
2023-03-22T07:39:14.724Z,78.16
2023-03-22T07:40:14.705Z,78.16
2023-03-22T07:41:14.719Z,78.16
2023-03-22T07:42:14.719Z,77.55
2023-03-22T07:43:14.679Z,77.85
2023-03-22T07:44:18.056Z,77.44
2023-03-22T07:45:14.699Z,77.64
2023-03-22T07:46:14.667Z,77.75
2023-03-22T07:47:14.641Z,76.42
2023-03-22T07:48:14.690Z,76.28
2023-03-22T07:49:14.622Z,76.28
2023-03-22T07:50:14.596Z,76.49
2023-03-22T07:51:14.593Z,76.90
2023-03-22T07:52:14.565Z,76.79
2023-03-22T07:53:14.580Z,75.67
2023-03-22T07:54:27.246Z,75.57
2023-03-22T07:55:15.556Z,75.67
2023-03-22T07:56:14.673Z,75.16
2023-03-22T07:57:14.527Z,74.93
2023-03-22T07:58:14.656Z,75.02
2023-03-22T07:59:14.551Z,75.95
2023-03-22T08:00:14.496Z,75.23
2023-03-22T08:01:14.495Z,75.54
2023-03-22T08:02:14.594Z,74.76
2023-03-22T08:03:14.528Z,73.94
2023-03-22T08:04:14.460Z,74.76
2023-03-22T08:05:14.452Z,74.96
2023-03-22T08:06:14.429Z,75.67
2023-03-22T08:07:14.421Z,73.43
2023-03-22T08:08:14.467Z,73.84
2023-03-22T08:09:14.399Z,73.33
2023-03-22T08:10:14.383Z,74.04
2023-03-22T08:11:14.372Z,72.72
2023-03-22T08:12:14.372Z,73.02
2023-03-22T08:13:14.372Z,73.43
2023-03-22T08:14:15.193Z,73.33
2023-03-22T08:15:14.341Z,72.62
2023-03-22T08:16:14.381Z,72.38
2023-03-22T08:17:14.457Z,72.48
2023-03-22T08:18:14.384Z,73.19
2023-03-22T08:19:14.288Z,73.40
2023-03-22T08:20:14.270Z,71.67
2023-03-22T08:21:14.253Z,69.60
2023-03-22T08:22:14.263Z,70.28
2023-03-22T08:23:14.254Z,69.13
2023-03-22T08:24:15.180Z,68.72
2023-03-22T08:25:14.223Z,69.53
2023-03-22T08:26:14.213Z,68.89
2023-03-22T08:27:14.573Z,69.26
2023-03-22T08:28:14.237Z,68.45
2023-03-22T08:29:14.174Z,67.84
2023-03-22T08:30:14.200Z,68.25
2023-03-22T08:31:15.348Z,68.55
2023-03-22T08:32:14.158Z,67.91
2023-03-22T08:33:14.368Z,66.49
2023-03-22T08:34:14.129Z,67.81
2023-03-22T08:35:14.108Z,68.12
2023-03-22T08:36:14.117Z,66.29
2023-03-22T08:37:14.111Z,68.93
2023-03-22T08:38:14.110Z,68.52
2023-03-22T08:39:14.065Z,67.84
2023-03-22T08:40:14.068Z,67.24
2023-03-22T08:41:14.098Z,66.55
2023-03-22T08:42:14.036Z,66.05
2023-03-22T08:43:14.217Z,66.86
2023-03-22T08:44:14.007Z,67.57
2023-03-22T08:45:14.000Z,67.84
2023-03-22T08:46:14.132Z,66.22
2023-03-22T08:47:13.981Z,67.16
2023-03-22T08:48:14.042Z,68.08
2023-03-22T08:49:14.012Z,67.44
2023-03-22T08:50:13.951Z,67.33
2023-03-22T08:51:14.041Z,67.44
2023-03-22T08:52:13.910Z,66.39
2023-03-22T08:53:13.927Z,65.78
2023-03-22T08:54:13.932Z,65.48
2023-03-22T08:55:13.901Z,66.19
2023-03-22T08:56:13.932Z,66.29
2023-03-22T08:57:13.874Z,67.00
2023-03-22T08:58:13.902Z,66.19
2023-03-22T08:59:13.874Z,65.78
2023-03-22T09:00:14.000Z,66.60
2023-03-22T09:01:13.945Z,67.61
2023-03-22T09:02:13.965Z,66.46
2023-03-22T09:03:13.907Z,67.17
2023-03-22T09:04:13.955Z,66.66
2023-03-22T09:05:13.785Z,66.56
2023-03-22T09:06:13.768Z,66.16
2023-03-22T09:07:13.765Z,66.86
2023-03-22T09:08:19.130Z,66.90
2023-03-22T09:09:14.782Z,66.60
2023-03-22T09:10:13.789Z,65.58
2023-03-22T09:11:14.615Z,66.80
2023-03-22T09:12:13.760Z,67.61
2023-03-22T09:13:13.714Z,67.88
2023-03-22T09:14:13.712Z,67.58
2023-03-22T09:15:13.672Z,65.58
2023-03-22T09:16:13.795Z,66.60
2023-03-22T09:17:13.670Z,64.87
2023-03-22T09:18:13.704Z,66.80
2023-03-22T09:19:13.630Z,66.08
2023-03-22T09:20:13.753Z,65.88
2023-03-22T09:21:13.623Z,66.29
2023-03-22T09:22:13.689Z,65.99
2023-03-22T09:23:13.604Z,66.49
2023-03-22T09:24:13.657Z,66.29
2023-03-22T09:25:13.616Z,67.00
2023-03-22T09:26:13.592Z,64.70
2023-03-22T09:27:13.545Z,64.39
2023-03-22T09:28:13.563Z,64.49
2023-03-22T09:29:13.521Z,64.90
2023-03-22T09:30:13.508Z,65.20
2023-03-22T09:31:13.539Z,65.03
2023-03-22T09:32:13.510Z,64.42
2023-03-22T09:33:13.503Z,65.81
2023-03-22T09:34:13.461Z,64.90
2023-03-22T09:35:13.452Z,65.61
2023-03-22T09:36:13.443Z,66.08
2023-03-22T09:37:13.437Z,65.14
2023-03-22T09:38:13.445Z,62.88
2023-03-22T09:39:13.419Z,63.39
2023-03-22T09:40:13.455Z,63.66
2023-03-22T09:41:13.403Z,63.26
2023-03-22T09:42:13.384Z,62.45
2023-03-22T09:43:13.377Z,62.14
2023-03-22T09:44:13.426Z,62.52
2023-03-22T09:45:13.358Z,62.41
2023-03-22T09:46:13.489Z,63.06
2023-03-22T09:47:13.335Z,62.65
2023-03-22T09:48:13.491Z,62.14
2023-03-22T09:49:13.322Z,61.74
2023-03-22T09:50:13.309Z,63.06
2023-03-22T09:51:13.296Z,63.30
2023-03-22T09:52:13.423Z,61.98
2023-03-22T09:53:13.283Z,62.59
2023-03-22T09:54:13.254Z,62.56
2023-03-22T09:55:13.302Z,61.27
2023-03-22T09:56:13.348Z,61.78
2023-03-22T09:57:13.228Z,62.41
2023-03-22T09:58:13.288Z,61.53
2023-03-22T09:59:13.204Z,62.24
2023-03-22T10:00:13.320Z,62.88
2023-03-22T10:01:13.277Z,63.01
2023-03-22T10:02:13.403Z,64.00
2023-03-22T10:03:13.163Z,64.00
2023-03-22T10:04:13.355Z,64.67
2023-03-22T10:05:13.157Z,62.95
2023-03-22T10:06:13.144Z,62.27
2023-03-22T10:07:13.241Z,63.39
2023-03-22T10:08:13.137Z,63.69
2023-03-22T10:09:13.115Z,62.27
2023-03-22T10:10:13.144Z,63.46
2023-03-22T10:11:13.067Z,63.15
2023-03-22T10:12:13.048Z,63.26
2023-03-22T10:13:13.103Z,63.63
2023-03-22T10:14:13.120Z,61.83
2023-03-22T10:15:13.039Z,62.04
2023-03-22T10:16:13.095Z,62.75
2023-03-22T10:17:13.057Z,63.02
2023-03-22T10:18:13.035Z,62.89
2023-03-22T10:19:13.062Z,62.86
2023-03-22T10:20:12.994Z,61.65
2023-03-22T10:21:13.028Z,61.85
2023-03-22T10:22:12.988Z,60.36
2023-03-22T10:23:12.954Z,62.49
2023-03-22T10:24:12.964Z,60.57
2023-03-22T10:25:12.937Z,60.97
2023-03-22T10:26:13.049Z,61.20
2023-03-22T10:27:13.857Z,61.00
2023-03-22T10:28:12.996Z,61.40
2023-03-22T10:29:12.873Z,60.69
2023-03-22T10:30:12.856Z,60.97
2023-03-22T10:31:12.897Z,62.38
2023-03-22T10:32:12.857Z,60.79
2023-03-22T10:33:12.835Z,61.51
2023-03-22T10:34:12.876Z,60.39
2023-03-22T10:35:12.819Z,62.52
2023-03-22T10:36:12.787Z,62.41
2023-03-22T10:37:12.787Z,61.10
2023-03-22T10:38:12.817Z,61.91
2023-03-22T10:39:14.472Z,63.53
2023-03-22T10:40:12.779Z,62.31
2023-03-22T10:41:12.741Z,62.62
2023-03-22T10:42:12.742Z,62.29
2023-03-22T10:43:12.740Z,62.49
2023-03-22T10:44:12.726Z,62.08
2023-03-22T10:45:12.780Z,62.29
2023-03-22T10:46:12.692Z,61.44
2023-03-22T10:47:12.681Z,61.04
2023-03-22T10:48:12.750Z,59.42
2023-03-22T10:49:12.667Z,59.63
2023-03-22T10:50:12.846Z,59.05
2023-03-22T10:51:12.693Z,60.23
2023-03-22T10:52:12.658Z,59.29
2023-03-22T10:53:12.646Z,59.87
2023-03-22T10:54:12.596Z,59.16
2023-03-22T10:55:12.599Z,58.86
2023-03-22T10:56:12.599Z,58.36
2023-03-22T10:57:12.584Z,58.45
2023-03-22T10:58:12.637Z,58.36
2023-03-22T10:59:12.561Z,59.97
2023-03-22T11:00:12.539Z,59.16
2023-03-22T11:01:12.609Z,59.87
2023-03-22T11:02:12.615Z,58.41
2023-03-22T11:03:12.596Z,58.74
2023-03-22T11:04:12.492Z,61.35
2023-03-22T11:05:12.490Z,59.95
2023-03-22T11:06:12.480Z,60.66
2023-03-22T11:07:12.465Z,61.17
2023-03-22T11:08:12.447Z,58.26
2023-03-22T11:09:12.487Z,59.88
2023-03-22T11:10:12.521Z,60.49
2023-03-22T11:11:12.441Z,60.28
2023-03-22T11:12:12.487Z,59.61
2023-03-22T11:13:12.420Z,60.21
2023-03-22T11:14:12.411Z,61.53
2023-03-22T11:15:12.387Z,62.14
2023-03-22T11:16:12.441Z,61.76
2023-03-22T11:17:12.399Z,61.56
2023-03-22T11:18:12.401Z,61.36
2023-03-22T11:19:12.378Z,61.46
2023-03-22T11:20:12.536Z,61.66
2023-03-22T11:21:12.308Z,62.27
2023-03-22T11:22:12.306Z,62.68
2023-03-22T11:23:12.309Z,61.69
2023-03-22T11:24:12.278Z,63.01
2023-03-22T11:25:12.283Z,61.08
2023-03-22T11:26:12.332Z,60.07
2023-03-22T11:27:12.243Z,61.59
2023-03-22T11:28:12.256Z,60.60
2023-03-22T11:29:12.220Z,61.49
2023-03-22T11:30:12.226Z,61.29
2023-03-22T11:31:12.207Z,60.81
2023-03-22T11:32:12.245Z,60.60
2023-03-22T11:33:12.238Z,61.11
2023-03-22T11:34:12.183Z,62.63
2023-03-22T11:35:12.168Z,63.45
2023-03-22T11:36:12.217Z,62.74
2023-03-22T11:37:14.420Z,63.34
2023-03-22T11:38:12.158Z,62.33
2023-03-22T11:39:12.115Z,62.53
2023-03-22T11:40:12.213Z,63.34
2023-03-22T11:41:12.099Z,63.24
2023-03-22T11:42:12.076Z,64.36
2023-03-22T11:43:12.096Z,62.94
2023-03-22T11:44:12.065Z,63.34
2023-03-22T11:45:12.058Z,62.43
2023-03-22T11:46:12.120Z,62.56
2023-03-22T11:47:12.047Z,61.34
2023-03-22T11:48:12.251Z,61.85
2023-03-22T11:49:12.063Z,61.34
2023-03-22T11:50:12.011Z,62.23
2023-03-22T11:51:12.517Z,62.63
2023-03-22T11:52:11.977Z,63.04
2023-03-22T11:53:11.990Z,63.78
2023-03-22T11:54:12.031Z,63.07
2023-03-22T11:55:11.951Z,62.66
2023-03-22T11:56:11.935Z,63.07
2023-03-22T11:57:11.929Z,64.59
2023-03-22T11:58:11.917Z,63.28
2023-03-22T11:59:11.923Z,62.76
2023-03-22T12:00:11.908Z,63.58
2023-03-22T12:01:11.877Z,63.68
2023-03-22T12:02:11.981Z,63.28
2023-03-22T12:03:11.893Z,64.15
2023-03-22T12:04:11.956Z,64.76
2023-03-22T12:05:11.900Z,63.85
2023-03-22T12:06:11.937Z,64.06
2023-03-22T12:07:11.811Z,62.74
2023-03-22T12:08:11.895Z,63.07
2023-03-22T12:09:11.794Z,63.28
2023-03-22T12:10:11.832Z,62.26
2023-03-22T12:11:11.796Z,62.26
2023-03-22T12:12:11.808Z,62.46
2023-03-22T12:13:11.754Z,62.46
2023-03-22T12:14:11.888Z,63.37
2023-03-22T12:15:11.723Z,61.65
2023-03-22T12:16:11.800Z,61.85
2023-03-22T12:17:11.704Z,62.56
2023-03-22T12:18:11.738Z,61.75
2023-03-22T12:19:11.706Z,62.36
2023-03-22T12:20:11.700Z,61.68
2023-03-22T12:21:11.675Z,62.18
2023-03-22T12:22:11.753Z,62.90
2023-03-22T12:23:11.653Z,63.40
2023-03-22T12:24:11.651Z,62.39
2023-03-22T12:25:11.626Z,62.18
2023-03-22T12:26:11.639Z,63.20
2023-03-22T12:27:11.649Z,63.02
2023-03-22T12:28:11.653Z,62.32
2023-03-22T12:29:11.601Z,63.02
2023-03-22T12:30:11.614Z,63.64
2023-03-22T12:31:11.623Z,64.35
2023-03-22T12:32:11.560Z,63.94
2023-03-22T12:33:11.626Z,63.33
2023-03-22T12:34:11.529Z,64.55
2023-03-22T12:35:17.232Z,63.64
2023-03-22T12:36:12.567Z,63.23
2023-03-22T12:37:11.485Z,64.04
2023-03-22T12:38:11.609Z,64.25
2023-03-22T12:39:11.465Z,64.76
2023-03-22T12:40:11.507Z,63.54
2023-03-22T12:41:11.504Z,63.23
2023-03-22T12:42:11.515Z,63.64
2023-03-22T12:43:11.455Z,63.94
2023-03-22T12:44:11.442Z,64.15
2023-03-22T12:45:11.395Z,63.74
2023-03-22T12:46:11.468Z,63.43
2023-03-22T12:47:11.414Z,63.84
2023-03-22T12:48:11.529Z,63.94
2023-03-22T12:49:11.369Z,64.83
2023-03-22T12:50:11.357Z,65.13
2023-03-22T12:51:11.356Z,64.52
2023-03-22T12:52:11.360Z,63.60